TimeEST,TemperatureF,Dew PointF,Humidity,Sea Level PressureIn,VisibilityMPH,Wind Direction,Wind SpeedMPH,Gust SpeedMPH,PrecipitationIn,Events,Conditions,WindDirDegrees,DateUTC
12:53 AM,66.0,62.1,87,30.04,10.0,SSW,13.8,-,N/A,,Overcast,200,2013-03-06 05:53:00
1:53 AM,66.0,62.1,87,30.02,10.0,SSW,15.0,-,N/A,,Scattered Clouds,210,2013-03-06 06:53:00
2:53 AM,66.0,62.1,87,30.00,10.0,SSW,10.4,-,N/A,,Scattered Clouds,210,2013-03-06 07:53:00
3:53 AM,66.0,62.1,87,29.98,10.0,SSW,11.5,-,N/A,,Mostly Cloudy,210,2013-03-06 08:53:00
4:34 AM,66.2,62.6,88,29.98,10.0,SW,13.8,21.9,0.00,,Overcast,220,2013-03-06 09:34:00
4:48 AM,66.2,62.6,88,29.99,6.0,SW,11.5,21.9,0.01,Rain,Light Rain,230,2013-03-06 09:48:00
4:53 AM,66.0,63.0,90,29.99,7.0,SW,12.7,-,0.01,Rain,Light Rain,220,2013-03-06 09:53:00
5:08 AM,66.2,62.6,88,29.99,9.0,WSW,9.2,-,0.01,Rain,Light Rain,250,2013-03-06 10:08:00
5:36 AM,66.2,64.4,94,30.00,10.0,West,11.5,-,0.01,,Overcast,260,2013-03-06 10:36:00
5:53 AM,66.0,63.0,90,29.99,10.0,West,11.5,-,0.01,,Overcast,260,2013-03-06 10:53:00
6:14 AM,60.8,57.2,88,30.03,10.0,NNW,17.3,31.1,0.00,Rain,Light Rain,340,2013-03-06 11:14:00
6:53 AM,59.0,55.0,87,30.04,10.0,NNW,17.3,24.2,0.00,,Overcast,340,2013-03-06 11:53:00
7:53 AM,55.9,45.0,67,30.09,10.0,North,17.3,25.3,N/A,,Partly Cloudy,350,2013-03-06 12:53:00
8:53 AM,55.9,42.1,60,30.12,10.0,North,20.7,28.8,N/A,,Clear,360,2013-03-06 13:53:00
9:53 AM,59.0,42.1,53,30.13,10.0,North,18.4,25.3,N/A,,Partly Cloudy,360,2013-03-06 14:53:00
10:53 AM,61.0,42.1,50,30.14,10.0,NNW,17.3,25.3,N/A,,Clear,340,2013-03-06 15:53:00
11:53 AM,63.0,41.0,45,30.12,10.0,NW,20.7,25.3,N/A,,Clear,320,2013-03-06 16:53:00
12:53 PM,63.0,36.0,37,30.10,10.0,NNW,18.4,26.5,N/A,,Clear,330,2013-03-06 17:53:00
1:53 PM,64.0,39.0,40,30.09,10.0,NW,21.9,29.9,N/A,,Clear,310,2013-03-06 18:53:00
2:53 PM,63.0,39.9,43,30.07,10.0,NW,21.9,29.9,N/A,,Clear,310,2013-03-06 19:53:00
3:53 PM,62.1,39.9,44,30.07,10.0,NNW,19.6,25.3,N/A,,Clear,330,2013-03-06 20:53:00
4:53 PM,59.0,39.9,49,30.07,10.0,NW,19.6,26.5,N/A,,Clear,310,2013-03-06 21:53:00
5:53 PM,57.9,39.0,49,30.08,10.0,NW,19.6,24.2,N/A,,Clear,320,2013-03-06 22:53:00
6:53 PM,55.9,39.0,53,30.09,10.0,NW,11.5,-,N/A,,Clear,310,2013-03-06 23:53:00
7:53 PM,55.9,42.1,60,30.09,10.0,NW,13.8,-,N/A,,Clear,310,2013-03-07 00:53:00
8:53 PM,55.0,42.1,62,30.11,10.0,NNW,11.5,-,N/A,,Clear,330,2013-03-07 01:53:00
9:53 PM,55.0,42.1,62,30.14,10.0,NNW,10.4,-,N/A,,Clear,330,2013-03-07 02:53:00
10:53 PM,55.0,41.0,59,30.15,10.0,North,6.9,-,N/A,,Clear,350,2013-03-07 03:53:00
11:53 PM,55.0,41.0,59,30.14,10.0,NNW,8.1,-,N/A,,Clear,340,2013-03-07 04:53:00